createdAt,value
2023-06-09T00:00:41.478Z,31.86
2023-06-09T00:01:41.588Z,31.82
2023-06-09T00:02:41.747Z,31.89
2023-06-09T00:03:41.685Z,31.85
2023-06-09T00:04:41.686Z,31.88
2023-06-09T00:05:41.744Z,31.85
2023-06-09T00:06:41.782Z,31.89
2023-06-09T00:07:41.836Z,31.81
2023-06-09T00:08:41.915Z,31.86
2023-06-09T00:09:41.971Z,31.84
2023-06-09T00:10:42.030Z,31.85
2023-06-09T00:11:42.061Z,31.91
2023-06-09T00:12:42.171Z,31.86
2023-06-09T00:13:42.183Z,31.89
2023-06-09T00:14:42.238Z,31.88
2023-06-09T00:15:42.277Z,31.84
2023-06-09T00:16:42.449Z,31.88
2023-06-09T00:17:42.464Z,31.85
2023-06-09T00:18:42.487Z,31.86
2023-06-09T00:19:42.552Z,31.89
2023-06-09T00:20:42.601Z,31.85
2023-06-09T00:21:42.651Z,31.89
2023-06-09T00:22:42.746Z,31.86
2023-06-09T00:23:42.844Z,31.88
2023-06-09T00:24:42.867Z,31.85
2023-06-09T00:25:42.922Z,31.82
2023-06-09T00:26:42.990Z,31.85
2023-06-09T00:27:43.081Z,31.85
2023-06-09T00:28:43.094Z,31.86
2023-06-09T00:29:43.173Z,31.89
2023-06-09T00:30:43.219Z,31.90
2023-06-09T00:31:43.384Z,31.88
2023-06-09T00:32:43.417Z,31.89
2023-06-09T00:33:43.394Z,31.85
2023-06-09T00:34:43.442Z,31.86
2023-06-09T00:35:43.500Z,31.89
2023-06-09T00:36:43.555Z,31.89
2023-06-09T00:37:43.633Z,31.92
2023-06-09T00:38:43.685Z,31.89
2023-06-09T00:39:43.718Z,31.89
2023-06-09T00:40:43.797Z,31.88
2023-06-09T00:41:43.836Z,31.92
2023-06-09T00:42:43.922Z,31.86
2023-06-09T00:43:43.959Z,31.89
2023-06-09T00:44:44.027Z,31.93
2023-06-09T00:45:44.142Z,31.83
2023-06-09T00:46:44.191Z,31.86
2023-06-09T00:47:44.246Z,31.92
2023-06-09T00:48:44.308Z,31.89
2023-06-09T00:49:44.326Z,31.90
2023-06-09T00:50:44.378Z,31.86
2023-06-09T00:51:44.453Z,31.92
2023-06-09T00:52:44.535Z,31.89
2023-06-09T00:53:44.521Z,31.90
2023-06-09T00:54:44.621Z,31.89
2023-06-09T00:55:44.656Z,31.92
2023-06-09T00:56:44.733Z,31.87
2023-06-09T00:57:44.800Z,31.90
2023-06-09T00:58:44.858Z,31.93
2023-06-09T00:59:44.973Z,31.90
2023-06-09T01:00:44.996Z,31.92
2023-06-09T01:01:45.133Z,31.90
2023-06-09T01:02:45.262Z,31.87
2023-06-09T01:03:45.161Z,31.86
2023-06-09T01:04:45.209Z,31.92
2023-06-09T01:05:45.318Z,31.90
2023-06-09T01:06:45.323Z,31.92
2023-06-09T01:07:45.383Z,31.87
2023-06-09T01:08:45.458Z,31.92
2023-06-09T01:09:45.487Z,31.91
2023-06-09T01:10:45.601Z,31.89
2023-06-09T01:11:45.633Z,31.89
2023-06-09T01:12:45.695Z,31.86
2023-06-09T01:13:45.806Z,31.93
2023-06-09T01:14:45.814Z,31.93
2023-06-09T01:15:45.889Z,31.92
2023-06-09T01:16:45.956Z,31.90
2023-06-09T01:17:46.041Z,31.89
2023-06-09T01:18:46.037Z,31.89
2023-06-09T01:19:46.088Z,31.93
2023-06-09T01:20:46.155Z,31.91
2023-06-09T01:21:46.248Z,31.92
2023-06-09T01:22:46.277Z,31.87
2023-06-09T01:23:46.398Z,31.90
2023-06-09T01:24:46.419Z,31.93
2023-06-09T01:25:46.463Z,31.93
2023-06-09T01:26:46.507Z,31.96
2023-06-09T01:27:46.558Z,31.93
2023-06-09T01:28:46.623Z,31.94
2023-06-09T01:29:46.650Z,31.94
2023-06-09T01:30:46.733Z,31.96
2023-06-09T01:31:46.814Z,31.96
2023-06-09T01:32:46.912Z,31.94
2023-06-09T01:33:46.916Z,31.97
2023-06-09T01:34:46.929Z,31.97
2023-06-09T01:35:47.000Z,31.94
2023-06-09T01:36:47.045Z,31.93
2023-06-09T01:37:47.090Z,31.94
2023-06-09T01:38:47.153Z,31.96
2023-06-09T01:39:47.215Z,31.94
2023-06-09T01:40:47.234Z,31.97
2023-06-09T01:41:47.281Z,31.97
2023-06-09T01:42:47.343Z,31.96
2023-06-09T01:43:47.387Z,31.96
2023-06-09T01:44:47.440Z,31.96
2023-06-09T01:45:47.544Z,31.96
2023-06-09T01:46:47.520Z,31.93
2023-06-09T01:47:47.684Z,31.94
2023-06-09T01:48:47.615Z,31.91
2023-06-09T01:49:47.700Z,31.97
2023-06-09T01:50:47.734Z,31.91
2023-06-09T01:51:47.802Z,31.96
2023-06-09T01:52:47.859Z,31.93
2023-06-09T01:53:47.892Z,31.97
2023-06-09T01:54:47.980Z,31.97
2023-06-09T01:55:48.023Z,31.97
2023-06-09T01:56:48.057Z,31.95
2023-06-09T01:57:48.127Z,31.97
2023-06-09T01:58:48.143Z,31.92
2023-06-09T01:59:48.217Z,31.93
2023-06-09T02:00:48.238Z,31.94
2023-06-09T02:01:48.355Z,31.99
2023-06-09T02:02:48.400Z,31.94
2023-06-09T02:03:48.427Z,31.94
2023-06-09T02:04:50.935Z,31.96
2023-06-09T02:05:48.452Z,31.94
2023-06-09T02:06:48.459Z,31.95
2023-06-09T02:07:48.466Z,31.97
2023-06-09T02:08:48.443Z,31.94
2023-06-09T02:09:48.413Z,31.97
2023-06-09T02:10:48.431Z,31.98
2023-06-09T02:11:48.430Z,31.94
2023-06-09T02:12:48.391Z,31.98
2023-06-09T02:13:48.427Z,31.97
2023-06-09T02:14:48.395Z,31.94
2023-06-09T02:15:48.438Z,31.99
2023-06-09T02:16:48.450Z,31.99
2023-06-09T02:17:48.443Z,31.97
2023-06-09T02:18:48.356Z,31.98
2023-06-09T02:19:48.335Z,32.02
2023-06-09T02:20:48.354Z,31.95
2023-06-09T02:21:48.363Z,32.01
2023-06-09T02:22:48.322Z,31.95
2023-06-09T02:23:48.350Z,31.98
2023-06-09T02:24:48.316Z,31.98
2023-06-09T02:25:48.331Z,31.98
2023-06-09T02:26:48.282Z,31.94
2023-06-09T02:27:48.274Z,32.01
2023-06-09T02:28:48.335Z,32.01
2023-06-09T02:29:48.291Z,31.98
2023-06-09T02:30:48.274Z,32.05
2023-06-09T02:31:48.374Z,31.96
2023-06-09T02:32:48.314Z,32.02
2023-06-09T02:33:48.249Z,32.01
2023-06-09T02:34:48.240Z,31.95
2023-06-09T02:35:48.251Z,32.04
2023-06-09T02:36:48.197Z,32.01
2023-06-09T02:37:48.207Z,32.02
2023-06-09T02:38:48.208Z,32.02
2023-06-09T02:39:48.284Z,32.05
2023-06-09T02:40:48.180Z,32.01
2023-06-09T02:41:48.194Z,31.98
2023-06-09T02:42:48.196Z,32.04
2023-06-09T02:43:48.186Z,32.02
2023-06-09T02:44:48.177Z,32.01
2023-06-09T02:45:48.247Z,32.01
2023-06-09T02:46:48.165Z,32.06
2023-06-09T02:47:48.881Z,31.99
2023-06-09T02:48:48.264Z,31.99
2023-06-09T02:49:48.294Z,31.99
2023-06-09T02:50:48.360Z,32.02
2023-06-09T02:51:48.498Z,32.05
2023-06-09T02:52:48.432Z,32.03
2023-06-09T02:53:48.477Z,32.04
2023-06-09T02:54:48.559Z,32.04
2023-06-09T02:55:48.563Z,31.99
2023-06-09T02:56:48.640Z,32.01
2023-06-09T02:57:48.688Z,32.03
2023-06-09T02:58:48.716Z,32.05
2023-06-09T02:59:48.825Z,32.02
2023-06-09T03:00:48.872Z,32.02
2023-06-09T03:01:48.852Z,32.02
2023-06-09T03:02:48.899Z,32.01
2023-06-09T03:03:48.943Z,32.02
2023-06-09T03:04:48.933Z,32.03
2023-06-09T03:05:48.929Z,32.03
2023-06-09T03:06:48.996Z,32.02
2023-06-09T03:07:48.987Z,32.03
2023-06-09T03:08:48.984Z,32.07
2023-06-09T03:09:49.052Z,32.06
2023-06-09T03:10:49.070Z,32.06
2023-06-09T03:11:49.135Z,32.04
2023-06-09T03:12:49.088Z,32.06
2023-06-09T03:13:49.128Z,32.02
2023-06-09T03:14:49.151Z,32.05
2023-06-09T03:15:49.181Z,32.03
2023-06-09T03:16:49.307Z,32.03
2023-06-09T03:17:49.329Z,31.99
2023-06-09T03:18:49.265Z,32.03
2023-06-09T03:19:49.286Z,32.06
2023-06-09T03:20:49.308Z,31.96
2023-06-09T03:21:49.347Z,32.06
2023-06-09T03:22:49.358Z,32.08
2023-06-09T03:23:49.423Z,32.03
2023-06-09T03:24:49.449Z,32.04
2023-06-09T03:25:49.443Z,32.02
2023-06-09T03:26:49.524Z,32.01
2023-06-09T03:27:49.494Z,32.03
2023-06-09T03:28:49.601Z,32.03
2023-06-09T03:29:49.568Z,31.99
2023-06-09T03:30:49.629Z,32.02
2023-06-09T03:31:49.652Z,32.01
2023-06-09T03:32:49.738Z,31.98
2023-06-09T03:33:49.741Z,31.98
2023-06-09T03:34:49.801Z,31.99
2023-06-09T03:35:49.828Z,31.97
2023-06-09T03:36:49.858Z,31.95
2023-06-09T03:37:49.911Z,31.98
2023-06-09T03:38:49.942Z,31.99
2023-06-09T03:39:49.953Z,32.02
2023-06-09T03:40:50.062Z,31.98
2023-06-09T03:41:50.090Z,31.99
2023-06-09T03:42:50.164Z,31.99
2023-06-09T03:43:50.181Z,32.00
2023-06-09T03:44:50.285Z,31.93
2023-06-09T03:45:50.322Z,31.82
2023-06-09T03:46:50.403Z,31.66
2023-06-09T03:47:50.425Z,31.55
2023-06-09T03:48:50.458Z,31.37
2023-06-09T03:49:50.488Z,31.25
2023-06-09T03:50:50.568Z,31.16
2023-06-09T03:51:50.566Z,31.06
2023-06-09T03:52:50.599Z,31.05
2023-06-09T03:53:50.656Z,31.14
2023-06-09T03:54:50.648Z,31.19
2023-06-09T03:55:50.668Z,31.19
2023-06-09T03:56:50.695Z,31.24
2023-06-09T03:57:50.741Z,31.27
2023-06-09T03:58:50.831Z,31.26
2023-06-09T03:59:50.814Z,31.30
2023-06-09T04:00:50.893Z,31.34
2023-06-09T04:01:51.001Z,31.25
2023-06-09T04:02:50.978Z,31.22
2023-06-09T04:03:51.034Z,31.21
2023-06-09T04:04:51.063Z,31.24
2023-06-09T04:05:51.109Z,31.24
2023-06-09T04:06:51.184Z,31.28
2023-06-09T04:07:51.678Z,31.28
2023-06-09T04:08:51.219Z,31.16
2023-06-09T04:09:51.274Z,30.88
2023-06-09T04:10:51.303Z,30.53
2023-06-09T04:11:51.384Z,30.20
2023-06-09T04:12:51.424Z,29.93
2023-06-09T04:13:51.449Z,29.70
2023-06-09T04:14:51.440Z,29.72
2023-06-09T04:15:51.456Z,29.88
2023-06-09T04:16:51.573Z,30.01
2023-06-09T04:17:51.640Z,30.19
2023-06-09T04:18:51.612Z,30.28
2023-06-09T04:19:51.610Z,30.37
2023-06-09T04:20:51.644Z,30.48
2023-06-09T04:21:51.640Z,30.52
2023-06-09T04:22:51.691Z,30.62
2023-06-09T04:23:51.681Z,30.60
2023-06-09T04:24:51.704Z,30.73
2023-06-09T04:25:51.737Z,30.69
2023-06-09T04:26:51.779Z,30.81
2023-06-09T04:27:51.842Z,30.81
2023-06-09T04:28:51.854Z,30.86
2023-06-09T04:29:51.937Z,30.76
2023-06-09T04:30:51.935Z,30.31
2023-06-09T04:31:52.017Z,29.84
2023-06-09T04:32:52.010Z,29.38
2023-06-09T04:33:52.033Z,28.88
2023-06-09T04:34:52.072Z,28.62
2023-06-09T04:35:52.098Z,28.25
2023-06-09T04:36:52.121Z,27.84
2023-06-09T04:37:52.126Z,27.60
2023-06-09T04:38:52.172Z,27.34
2023-06-09T04:39:52.205Z,27.13
2023-06-09T04:40:52.233Z,26.82
2023-06-09T04:41:52.250Z,26.69
2023-06-09T04:42:52.273Z,26.52
2023-06-09T04:43:52.283Z,26.38
2023-06-09T04:44:52.308Z,26.23
2023-06-09T04:45:52.440Z,26.05
2023-06-09T04:46:52.482Z,25.88
2023-06-09T04:47:52.468Z,25.73
2023-06-09T04:48:52.501Z,25.64
2023-06-09T04:49:52.549Z,25.52
2023-06-09T04:50:52.548Z,25.31
2023-06-09T04:51:52.572Z,25.21
2023-06-09T04:52:52.586Z,25.21
2023-06-09T04:53:52.594Z,25.05
2023-06-09T04:54:52.764Z,24.95
2023-06-09T04:55:52.621Z,24.81
2023-06-09T04:56:52.653Z,24.74
2023-06-09T04:57:52.681Z,24.70
2023-06-09T04:58:52.801Z,24.83
2023-06-09T04:59:53.273Z,25.41
2023-06-09T05:00:52.863Z,25.94
2023-06-09T05:01:52.997Z,26.33
2023-06-09T05:02:53.006Z,26.72
2023-06-09T05:03:52.986Z,27.03
2023-06-09T05:04:53.055Z,27.34
2023-06-09T05:05:53.124Z,27.57
2023-06-09T05:06:53.026Z,27.81
2023-06-09T05:07:53.079Z,28.00
2023-06-09T05:08:53.116Z,28.24
2023-06-09T05:09:53.128Z,28.35
2023-06-09T05:10:53.167Z,28.51
2023-06-09T05:11:53.207Z,28.63
2023-06-09T05:12:53.259Z,28.70
2023-06-09T05:13:53.329Z,28.83
2023-06-09T05:14:53.364Z,28.87
2023-06-09T05:15:53.478Z,28.98
2023-06-09T05:16:53.491Z,29.02
2023-06-09T05:17:53.531Z,29.13
2023-06-09T05:18:53.537Z,29.18
2023-06-09T05:19:53.564Z,29.25
2023-06-09T05:20:53.629Z,29.22
2023-06-09T05:21:53.620Z,29.34
2023-06-09T05:22:53.615Z,29.36
2023-06-09T05:23:53.649Z,29.36
2023-06-09T05:24:53.629Z,29.40
2023-06-09T05:25:53.644Z,29.46
2023-06-09T05:26:53.604Z,29.46
2023-06-09T05:27:53.629Z,29.43
2023-06-09T05:28:53.623Z,29.51
2023-06-09T05:29:53.643Z,29.47
2023-06-09T05:30:53.657Z,29.46
2023-06-09T05:31:53.747Z,29.48
2023-06-09T05:32:53.695Z,29.51
2023-06-09T05:33:53.621Z,29.50
2023-06-09T05:34:53.649Z,29.54
2023-06-09T05:35:53.655Z,29.47
2023-06-09T05:36:53.646Z,29.46
2023-06-09T05:37:53.662Z,29.48
2023-06-09T05:38:53.655Z,29.48
2023-06-09T05:39:53.679Z,29.49
2023-06-09T05:40:53.651Z,29.47
2023-06-09T05:41:53.695Z,29.46
2023-06-09T05:42:53.703Z,29.47
2023-06-09T05:43:53.726Z,29.49
2023-06-09T05:44:53.765Z,29.53
2023-06-09T05:45:53.766Z,29.51
2023-06-09T05:46:53.745Z,29.56
2023-06-09T05:47:53.825Z,29.54
2023-06-09T05:48:53.802Z,29.53
2023-06-09T05:49:53.788Z,29.52
2023-06-09T05:50:53.791Z,29.54
2023-06-09T05:51:53.790Z,29.51
2023-06-09T05:52:53.806Z,29.49
2023-06-09T05:53:53.807Z,29.54
2023-06-09T05:54:53.845Z,29.60
2023-06-09T05:55:53.856Z,29.58
2023-06-09T05:56:53.893Z,29.58
2023-06-09T05:57:53.826Z,29.61
2023-06-09T05:58:53.878Z,29.57
2023-06-09T05:59:53.833Z,29.61
2023-06-09T06:00:53.887Z,29.61
2023-06-09T06:01:53.953Z,29.58
2023-06-09T06:02:53.977Z,29.62
2023-06-09T06:03:53.945Z,29.62
2023-06-09T06:04:53.870Z,29.62
2023-06-09T06:05:53.877Z,29.65
2023-06-09T06:06:53.889Z,29.62
2023-06-09T06:07:53.897Z,29.68
2023-06-09T06:08:53.946Z,29.67
2023-06-09T06:09:53.913Z,29.65
2023-06-09T06:10:53.910Z,29.68
2023-06-09T06:11:53.927Z,29.62
2023-06-09T06:12:53.926Z,29.63
2023-06-09T06:13:53.942Z,29.69
2023-06-09T06:14:53.941Z,29.66
2023-06-09T06:15:53.971Z,29.65
2023-06-09T06:16:54.003Z,29.69
2023-06-09T06:17:54.034Z,29.63
2023-06-09T06:18:54.015Z,29.66
2023-06-09T06:19:54.026Z,29.66
2023-06-09T06:20:54.033Z,29.66
2023-06-09T06:21:54.061Z,29.60
2023-06-09T06:22:54.068Z,29.70
2023-06-09T06:23:54.109Z,29.67
2023-06-09T06:24:54.070Z,29.69
2023-06-09T06:25:54.128Z,29.61
2023-06-09T06:26:54.145Z,29.63
2023-06-09T06:27:54.135Z,29.64
2023-06-09T06:28:54.151Z,29.64
2023-06-09T06:29:54.159Z,29.66
2023-06-09T06:30:54.185Z,29.66
2023-06-09T06:31:54.252Z,29.67
2023-06-09T06:32:54.597Z,29.66
2023-06-09T06:33:54.251Z,29.75
2023-06-09T06:34:54.257Z,29.67
2023-06-09T06:35:54.253Z,29.67
2023-06-09T06:36:54.303Z,29.69
2023-06-09T06:37:54.333Z,29.69
2023-06-09T06:38:54.338Z,29.67
2023-06-09T06:39:54.312Z,29.70
2023-06-09T06:40:54.326Z,29.78
2023-06-09T06:41:54.345Z,29.69
2023-06-09T06:42:54.374Z,29.74
2023-06-09T06:43:54.373Z,29.71
2023-06-09T06:44:56.305Z,29.71
2023-06-09T06:45:54.444Z,29.78
2023-06-09T06:46:54.424Z,29.82
2023-06-09T06:47:54.414Z,29.81
2023-06-09T06:48:54.341Z,29.78
2023-06-09T06:49:54.342Z,29.78
2023-06-09T06:50:54.338Z,29.77
2023-06-09T06:51:54.351Z,29.75
2023-06-09T06:52:54.317Z,29.80
2023-06-09T06:53:54.285Z,29.72
2023-06-09T06:54:54.297Z,29.83
2023-06-09T06:55:54.314Z,29.81
2023-06-09T06:56:54.261Z,29.77
2023-06-09T06:57:54.281Z,29.83
2023-06-09T06:58:54.254Z,29.81
2023-06-09T06:59:54.244Z,29.75
2023-06-09T07:00:54.315Z,29.83
2023-06-09T07:01:54.268Z,29.80
2023-06-09T07:02:54.298Z,29.80
2023-06-09T07:03:54.263Z,29.83
2023-06-09T07:04:54.215Z,29.83
2023-06-09T07:05:54.240Z,29.87
2023-06-09T07:06:54.295Z,29.85
2023-06-09T07:07:54.205Z,29.86
2023-06-09T07:08:54.182Z,29.85
2023-06-09T07:09:54.257Z,29.88
2023-06-09T07:10:54.202Z,29.90
2023-06-09T07:11:54.238Z,29.86
2023-06-09T07:12:54.176Z,29.89
2023-06-09T07:13:54.147Z,29.87
2023-06-09T07:14:54.151Z,29.93
2023-06-09T07:15:54.121Z,29.93
2023-06-09T07:16:54.115Z,29.96
2023-06-09T07:17:54.209Z,29.93
2023-06-09T07:18:54.303Z,29.87
2023-06-09T07:19:54.124Z,29.91
2023-06-09T07:20:54.076Z,29.94
2023-06-09T07:21:54.103Z,29.94
2023-06-09T07:22:54.099Z,29.90
2023-06-09T07:23:54.094Z,29.91
2023-06-09T07:24:54.086Z,30.01
2023-06-09T07:25:54.101Z,29.91
2023-06-09T07:26:54.062Z,29.97
2023-06-09T07:27:54.073Z,29.93
2023-06-09T07:28:54.101Z,29.99
2023-06-09T07:29:54.046Z,29.99
2023-06-09T07:30:54.059Z,29.98
2023-06-09T07:31:54.100Z,29.99
2023-06-09T07:32:54.027Z,29.92
2023-06-09T07:33:54.006Z,30.01
2023-06-09T07:34:54.110Z,30.08
2023-06-09T07:35:53.994Z,29.98
2023-06-09T07:36:53.986Z,30.02
2023-06-09T07:37:53.977Z,30.07
2023-06-09T07:38:54.013Z,30.18
2023-06-09T07:40:01.529Z,30.19
2023-06-09T07:40:54.934Z,30.20
2023-06-09T07:41:54.042Z,30.20
2023-06-09T07:42:53.924Z,30.20
2023-06-09T07:43:53.930Z,30.23
2023-06-09T07:44:53.925Z,30.27
2023-06-09T07:45:53.960Z,30.26
2023-06-09T07:46:53.918Z,30.29
2023-06-09T07:47:53.957Z,30.24
2023-06-09T07:48:53.910Z,30.22
2023-06-09T07:49:53.876Z,30.30
2023-06-09T07:51:01.335Z,30.34
2023-06-09T07:51:54.965Z,30.33
2023-06-09T07:52:54.006Z,30.31
2023-06-09T07:53:53.868Z,30.36
2023-06-09T07:54:53.882Z,30.36
2023-06-09T07:55:53.852Z,30.36
2023-06-09T07:56:53.897Z,30.39
2023-06-09T07:57:53.818Z,30.37
2023-06-09T07:58:53.812Z,30.41
2023-06-09T07:59:53.809Z,30.43
2023-06-09T08:00:53.820Z,30.37
2023-06-09T08:01:53.822Z,30.38
2023-06-09T08:02:53.856Z,30.44
2023-06-09T08:03:53.879Z,30.41
2023-06-09T08:04:53.907Z,30.38
2023-06-09T08:05:53.820Z,30.46
2023-06-09T08:06:53.866Z,30.41
2023-06-09T08:07:53.872Z,30.41
2023-06-09T08:08:53.901Z,30.43
2023-06-09T08:09:54.001Z,30.44
2023-06-09T08:10:54.022Z,30.47
2023-06-09T08:11:54.017Z,30.47
2023-06-09T08:12:54.076Z,30.49
2023-06-09T08:13:54.101Z,30.46
2023-06-09T08:14:54.124Z,30.52
2023-06-09T08:15:54.189Z,30.51
2023-06-09T08:16:54.201Z,30.46
2023-06-09T08:17:54.325Z,30.48
2023-06-09T08:18:54.325Z,30.48
2023-06-09T08:19:54.339Z,30.49
2023-06-09T08:20:54.381Z,30.53
2023-06-09T08:21:54.415Z,30.49
2023-06-09T08:22:55.376Z,30.51
2023-06-09T08:23:54.542Z,30.54
2023-06-09T08:24:54.503Z,30.51
2023-06-09T08:25:54.549Z,30.52
2023-06-09T08:26:54.586Z,30.51
2023-06-09T08:27:54.628Z,30.56
2023-06-09T08:28:54.674Z,30.52
2023-06-09T08:29:54.673Z,30.53
2023-06-09T08:30:54.742Z,30.56
2023-06-09T08:31:54.787Z,30.55
2023-06-09T08:32:54.858Z,30.55
2023-06-09T08:33:54.795Z,30.55
2023-06-09T08:34:54.838Z,30.53
2023-06-09T08:35:54.889Z,30.56
2023-06-09T08:36:54.920Z,30.56
2023-06-09T08:37:54.952Z,30.53
2023-06-09T08:38:54.972Z,30.58
2023-06-09T08:39:55.012Z,30.53
2023-06-09T08:40:55.020Z,30.53
2023-06-09T08:41:55.067Z,30.55
2023-06-09T08:42:55.096Z,30.59
2023-06-09T08:43:55.250Z,30.59
2023-06-09T08:44:55.195Z,30.63
2023-06-09T08:45:55.251Z,30.60
2023-06-09T08:46:55.357Z,30.65
2023-06-09T08:47:55.363Z,30.59
2023-06-09T08:48:55.356Z,30.63
2023-06-09T08:49:55.392Z,30.63
2023-06-09T08:50:55.427Z,30.63
2023-06-09T08:51:55.475Z,30.60
2023-06-09T08:52:55.564Z,30.63
2023-06-09T08:53:55.564Z,30.63
2023-06-09T08:54:55.599Z,30.68
2023-06-09T08:55:55.666Z,30.63
2023-06-09T08:56:55.750Z,30.69
2023-06-09T08:57:55.734Z,30.65
2023-06-09T08:58:55.792Z,30.70
2023-06-09T08:59:55.832Z,30.66
2023-06-09T09:00:55.920Z,30.59
2023-06-09T09:01:55.900Z,30.60
2023-06-09T09:02:56.018Z,30.67
2023-06-09T09:03:56.064Z,30.64
2023-06-09T09:04:56.022Z,30.66
2023-06-09T09:05:56.071Z,30.64
2023-06-09T09:06:56.113Z,30.67
2023-06-09T09:07:56.177Z,30.63
2023-06-09T09:08:56.234Z,30.66
2023-06-09T09:09:56.228Z,30.64
2023-06-09T09:10:56.340Z,30.64
2023-06-09T09:11:56.318Z,30.69
2023-06-09T09:12:56.393Z,30.66
2023-06-09T09:13:56.425Z,30.66
2023-06-09T09:14:56.420Z,30.66
2023-06-09T09:15:56.549Z,30.64
2023-06-09T09:16:56.491Z,30.67
2023-06-09T09:17:56.592Z,30.69
2023-06-09T09:18:56.577Z,30.63
2023-06-09T09:19:56.616Z,30.67
2023-06-09T09:20:56.647Z,30.66
2023-06-09T09:21:56.700Z,30.67
2023-06-09T09:22:56.738Z,30.64
2023-06-09T09:23:56.829Z,30.66
2023-06-09T09:24:56.834Z,30.67
2023-06-09T09:25:56.889Z,30.63
2023-06-09T09:26:56.892Z,30.70
2023-06-09T09:27:56.946Z,30.70
2023-06-09T09:28:56.989Z,30.66
2023-06-09T09:29:57.017Z,30.70
2023-06-09T09:30:57.227Z,30.64
2023-06-09T09:31:57.129Z,30.67
2023-06-09T09:32:57.157Z,30.69
2023-06-09T09:33:57.198Z,30.67
2023-06-09T09:34:57.257Z,30.69
2023-06-09T09:35:57.383Z,30.71
2023-06-09T09:36:57.384Z,30.64
2023-06-09T09:37:57.384Z,30.65
2023-06-09T09:38:57.384Z,30.69
2023-06-09T09:39:57.399Z,30.71
2023-06-09T09:40:57.499Z,30.69
2023-06-09T09:41:57.522Z,30.69
2023-06-09T09:42:57.512Z,30.69
2023-06-09T09:43:57.588Z,30.70
2023-06-09T09:44:57.634Z,30.69
2023-06-09T09:45:57.715Z,30.70
2023-06-09T09:46:57.757Z,30.67
2023-06-09T09:47:57.783Z,30.71
2023-06-09T09:48:57.759Z,30.70
2023-06-09T09:49:57.781Z,30.67
2023-06-09T09:50:57.823Z,30.70
2023-06-09T09:51:57.899Z,30.73
2023-06-09T09:52:57.857Z,30.69
2023-06-09T09:53:57.965Z,30.70
2023-06-09T09:54:58.030Z,30.69
2023-06-09T09:55:58.025Z,30.67
2023-06-09T09:56:58.063Z,30.70
2023-06-09T09:57:58.120Z,30.73
2023-06-09T09:58:58.127Z,30.74
2023-06-09T09:59:58.200Z,30.70
2023-06-09T10:00:58.277Z,30.69
2023-06-09T10:01:58.283Z,30.72
2023-06-09T10:02:58.334Z,30.69
2023-06-09T10:03:58.374Z,30.73
2023-06-09T10:04:58.355Z,30.66
2023-06-09T10:05:58.414Z,30.83
2023-06-09T10:06:58.494Z,30.80
2023-06-09T10:07:59.440Z,30.80
2023-06-09T10:08:58.468Z,30.80
2023-06-09T10:09:58.515Z,30.77
2023-06-09T10:10:58.566Z,30.79
2023-06-09T10:11:59.415Z,30.70
2023-06-09T10:12:58.627Z,30.69
2023-06-09T10:13:58.667Z,30.69
2023-06-09T10:14:58.699Z,30.74
2023-06-09T10:15:58.753Z,30.79
2023-06-09T10:16:58.827Z,30.79
2023-06-09T10:17:58.812Z,30.72
2023-06-09T10:18:58.807Z,30.74
2023-06-09T10:19:58.887Z,30.74
2023-06-09T10:20:58.930Z,30.74
2023-06-09T10:21:58.926Z,30.70
2023-06-09T10:22:58.952Z,30.72
2023-06-09T10:23:59.039Z,30.68
2023-06-09T10:24:59.011Z,30.70
2023-06-09T10:25:59.083Z,30.68
2023-06-09T10:26:59.078Z,30.69
2023-06-09T10:27:59.155Z,30.67
2023-06-09T10:28:59.168Z,30.68
2023-06-09T10:29:59.221Z,30.65
2023-06-09T10:30:59.222Z,30.75
2023-06-09T10:31:59.345Z,30.68
2023-06-09T10:32:59.310Z,30.74
2023-06-09T10:33:59.325Z,30.71
2023-06-09T10:34:59.382Z,30.68
2023-06-09T10:35:59.686Z,30.76
2023-06-09T10:36:59.425Z,30.66
2023-06-09T10:37:59.439Z,30.68
2023-06-09T10:38:59.508Z,30.65
2023-06-09T10:39:59.516Z,30.66
2023-06-09T10:40:59.598Z,30.69
2023-06-09T10:42:00.635Z,30.71
2023-06-09T10:42:59.676Z,30.72
2023-06-09T10:43:59.688Z,30.71
2023-06-09T10:44:59.762Z,30.65
2023-06-09T10:45:59.766Z,30.65
2023-06-09T10:46:59.844Z,30.72
2023-06-09T10:47:59.905Z,30.68
2023-06-09T10:48:59.881Z,30.65
2023-06-09T10:49:59.900Z,30.65
2023-06-09T10:50:59.930Z,30.74
2023-06-09T10:51:59.937Z,30.67
2023-06-09T10:53:00.120Z,30.67
2023-06-09T10:54:00.060Z,30.74
2023-06-09T10:55:00.095Z,30.67
2023-06-09T10:56:00.118Z,30.65
2023-06-09T10:57:00.169Z,30.64
2023-06-09T10:58:00.186Z,30.70
2023-06-09T10:59:00.212Z,30.68
2023-06-09T11:00:00.228Z,30.66
2023-06-09T11:01:00.262Z,30.67
2023-06-09T11:02:00.587Z,30.63
2023-06-09T11:03:00.438Z,30.64
2023-06-09T11:04:00.428Z,30.67
2023-06-09T11:05:00.439Z,30.64
2023-06-09T11:06:00.452Z,30.63
2023-06-09T11:07:00.502Z,30.69
2023-06-09T11:08:00.502Z,30.66
2023-06-09T11:09:00.540Z,30.63
2023-06-09T11:10:00.563Z,30.64
2023-06-09T11:11:00.649Z,30.67
2023-06-09T11:12:00.641Z,30.69
2023-06-09T11:13:00.665Z,30.67
2023-06-09T11:14:00.677Z,30.73
2023-06-09T11:15:01.125Z,30.70
2023-06-09T11:16:00.725Z,30.63
2023-06-09T11:17:00.790Z,30.63
2023-06-09T11:18:00.832Z,30.67
2023-06-09T11:19:00.874Z,30.63
2023-06-09T11:20:00.911Z,30.62
2023-06-09T11:21:00.899Z,30.67
2023-06-09T11:22:00.898Z,30.67
2023-06-09T11:23:01.097Z,30.64
2023-06-09T11:24:01.203Z,30.72
2023-06-09T11:25:01.003Z,30.77
2023-06-09T11:26:01.031Z,30.83
2023-06-09T11:27:01.013Z,30.74
2023-06-09T11:28:01.066Z,30.73
2023-06-09T11:29:01.088Z,30.67
2023-06-09T11:30:01.119Z,30.72
2023-06-09T11:31:01.137Z,30.71
2023-06-09T11:32:01.239Z,30.72
2023-06-09T11:33:01.174Z,30.66
2023-06-09T11:34:01.154Z,30.74
2023-06-09T11:35:01.198Z,30.70
2023-06-09T11:36:01.234Z,30.72
2023-06-09T11:37:01.209Z,30.67
2023-06-09T11:38:01.243Z,30.67
2023-06-09T11:39:01.267Z,30.70
2023-06-09T11:40:01.295Z,30.67
2023-06-09T11:41:01.316Z,30.69
2023-06-09T11:42:01.335Z,30.69
2023-06-09T11:43:01.351Z,30.66
2023-06-09T11:44:01.403Z,30.65
2023-06-09T11:45:01.402Z,30.69
2023-06-09T11:46:01.446Z,30.65
2023-06-09T11:47:01.386Z,30.67
2023-06-09T11:48:01.653Z,30.68
2023-06-09T11:49:01.503Z,30.72
2023-06-09T11:50:01.477Z,30.69
2023-06-09T11:51:01.494Z,30.67
2023-06-09T11:52:01.496Z,30.66
2023-06-09T11:53:01.547Z,30.66
2023-06-09T11:54:01.560Z,30.70
2023-06-09T11:55:01.564Z,30.61
2023-06-09T11:56:01.605Z,30.67
2023-06-09T11:57:01.597Z,30.71
2023-06-09T11:58:01.637Z,30.61
2023-06-09T11:59:01.603Z,30.73
2023-06-09T12:00:01.649Z,30.67
2023-06-09T12:01:01.658Z,30.62
2023-06-09T12:02:01.706Z,30.66
2023-06-09T12:03:01.796Z,30.65
2023-06-09T12:04:01.670Z,30.65
2023-06-09T12:05:01.735Z,30.69
2023-06-09T12:06:01.748Z,30.69
2023-06-09T12:07:01.738Z,30.69
2023-06-09T12:08:01.778Z,30.68
2023-06-09T12:09:01.743Z,30.69
2023-06-09T12:10:01.767Z,30.67
2023-06-09T12:11:01.722Z,30.69
2023-06-09T12:12:01.835Z,30.65
2023-06-09T12:13:01.788Z,30.68
2023-06-09T12:14:01.788Z,30.64
2023-06-09T12:15:01.791Z,30.69
2023-06-09T12:16:01.831Z,30.67
2023-06-09T12:17:01.847Z,30.66
2023-06-09T12:18:01.914Z,30.64
2023-06-09T12:19:01.902Z,30.71
2023-06-09T12:20:01.930Z,30.67
2023-06-09T12:21:01.925Z,30.68
2023-06-09T12:22:02.001Z,30.67
2023-06-09T12:23:04.486Z,30.68
2023-06-09T12:24:01.977Z,30.62
2023-06-09T12:25:01.926Z,30.64
2023-06-09T12:26:01.890Z,30.65
2023-06-09T12:27:01.903Z,30.62
2023-06-09T12:28:01.942Z,30.65
2023-06-09T12:29:01.965Z,30.64
2023-06-09T12:30:01.926Z,30.64
2023-06-09T12:31:01.889Z,30.62
2023-06-09T12:32:01.881Z,30.67
2023-06-09T12:33:02.067Z,30.62
2023-06-09T12:34:01.860Z,30.64
2023-06-09T12:35:01.886Z,30.63
2023-06-09T12:36:01.870Z,30.58
2023-06-09T12:37:01.842Z,30.62
2023-06-09T12:38:01.865Z,30.63
2023-06-09T12:39:01.854Z,30.66
2023-06-09T12:40:01.836Z,30.63
2023-06-09T12:41:01.821Z,30.64
2023-06-09T12:42:01.796Z,30.67
2023-06-09T12:43:01.809Z,30.65
2023-06-09T12:44:01.790Z,30.63
2023-06-09T12:45:01.795Z,30.61
2023-06-09T12:46:01.779Z,30.60
2023-06-09T12:47:01.832Z,30.63
2023-06-09T12:48:01.840Z,30.64
2023-06-09T12:49:01.762Z,30.57
2023-06-09T12:50:01.735Z,30.62
2023-06-09T12:51:01.769Z,30.62
2023-06-09T12:52:01.786Z,30.63
2023-06-09T12:53:01.755Z,30.67